Kezdőlap
METAR-TAF:

METAR-TAF

Repülőterek :

Stavropol, Oroszország

földrajzi szélesség: 45-20N, földrajzi hosszúság: 042-00E, magasság: 453 m

Jelenlegi meteorológiai megfigyelések

A jelentés 30 perccel ezelõtt készült, 05:00 UTC
Déli szél 4 kt
Hőmérséklet -12°C
Páratartalom 72%
Légköri nyomás 1031 hPa
Látótávolság 10 km, vagy több
felhőtlen 1500 m magasságban, és nincs gomolyfelhõ

METAR: URMT 250500Z 17002MPS CAVOK M12/M16 Q1031 R07/850245 NOSIG RMK QFE732

Idő: 09:30 (05:30 UTC)

Előrejelzés

A jelentés 3 órával és 30 perccel ezelõtt készült, 02:00 UTC
Az előrejelzés 25-én 03 óra UTC és 25-én 12 óra UTC között érvényes
Dél-délkeleti szél 10 kt széllökések: 19 kt
Látótávolság 10 km, vagy több
felhőtlen 1500 m magasságban, és nincs gomolyfelhõ
25-én 06 óra UTC és 25-én 08 óra UTC között fokozatosan kialakuló
Nyugati szél 6 kt széllökések: 16 kt

TAF: URMT 250200Z 2503/2512 16005G10MPS CAVOK BECMG 2506/2508 28003G08MPS

Meteorológiai megfigyelések és előrejelzések több, mint 4000 repülőtéren (METAR és TAF jelentéseket).

A térképen piros és sárga pontok jelzik az elérhető meteorológiai állomásokat.

Mozgassa az egeret a pont fölött, hogy megjelenjen az állomás neve.

Azután kattintson az időjárási megfigyelések és előrejelzések megtekintéséhez.

A térkép megváltoztatása: kattintson a fekete keresztel jelölt zöld gombra ráközelítéshez, a vonallal jelölt zöld gombra távolításhoz, vagy a zöld nyilakra a szomszédos térképek eléréséhez.


METAR-TAF: